Harun Konan — TCPK3 — position and weather

sailwx.info

Track history (hours):
 
Tides and Currents Weather Stations Pressure Air Temp Water Temp Dewpoint Dewpoint Depression Visibility Wind Speed Wind Dir Waves Ship Positions

Harun Konan

Last reported at 2017-Nov-17 23:22 UTC. Time now 2017-Nov-19 12:41 UTC.
Position N 44°21' E 037°27'.

Length 89 m; draft 6.1 m.

Type: Ship. MMSI: 271000871.

Date/timePositionNaut miles runAvg speedWind from/ knotsBaromVisibWave heightAir tempDewpointWater temp
2017-Nov-17 23:22N 44°21' E 037°27'411.3
2017-Nov-17 22:59N 44°24' E 037°32'511.4
2017-Nov-17 22:31N 44°27' E 037°38'611.4
2017-Nov-17 22:00N 44°32' E 037°43'511.1
2017-Nov-17 21:31N 44°36' E 037°48'5 9.2
2017-Nov-17 21:00N 44°40' E 037°50'4 7.3
2017-Nov-17 20:31N 44°44' E 037°48'0 0.2
2017-Nov-17 20:00N 44°44' E 037°48'0 0.0
2017-Nov-17 19:30N 44°44' E 037°48'0 0.0
2017-Nov-17 19:00N 44°44' E 037°48'0 0.0
2017-Nov-17 18:31N 44°44' E 037°48'0 0.0
2017-Nov-17 18:01N 44°44' E 037°48'0 0.0
2017-Nov-17 17:31N 44°44' E 037°48'0 0.0
2017-Nov-17 17:01N 44°44' E 037°48'0 0.0
2017-Nov-17 16:30N 44°44' E 037°48'0 0.0
2017-Nov-17 16:01N 44°44' E 037°48'0 0.0
2017-Nov-17 15:30N 44°44' E 037°48'0 0.0
2017-Nov-17 13:15N 44°44' E 037°48'0 0.0
2017-Nov-17 13:00N 44°44' E 037°48'0 0.0
2017-Nov-17 12:30N 44°44' E 037°48'0 0.0
2017-Nov-17 12:00N 44°44' E 037°48'0 0.0
2017-Nov-17 11:30N 44°44' E 037°48'0 0.0
2017-Nov-17 10:57N 44°44' E 037°48'0 0.0
2017-Nov-17 10:30N 44°44' E 037°48'0 0.0
2017-Nov-17 10:00N 44°44' E 037°48'0 0.0
2017-Nov-17 09:30N 44°44' E 037°48'0 0.0
2017-Nov-17 09:00N 44°44' E 037°48'0 0.0
2017-Nov-17 08:30N 44°44' E 037°48'0 0.0
2017-Nov-17 08:00N 44°44' E 037°48'0 0.0
2017-Nov-17 07:30N 44°44' E 037°48'0 0.0
2017-Nov-17 07:00N 44°44' E 037°48'0 0.0
2017-Nov-17 06:30N 44°44' E 037°48'6 0.7
2017-Nov-16 21:56N 44°39' E 037°54'0 0.0
2017-Nov-16 21:29N 44°39' E 037°54'0 0.0
2017-Nov-16 20:56N 44°39' E 037°54'0 0.0
2017-Nov-16 20:29N 44°39' E 037°54'0 0.0
2017-Nov-16 19:44N 44°39' E 037°54'0 0.0
2017-Nov-16 19:29N 44°39' E 037°54'0 0.0
2017-Nov-16 18:59N 44°39' E 037°54'0 0.0
2017-Nov-16 18:29N 44°39' E 037°54'0 0.0
2017-Nov-16 17:59N 44°39' E 037°54'0 0.0
2017-Nov-16 17:29N 44°39' E 037°54'0 0.0
2017-Nov-16 16:56N 44°39' E 037°54'0 0.0
2017-Nov-16 16:29N 44°39' E 037°54'0 0.0
2017-Nov-16 15:59N 44°39' E 037°54'0 0.0
2017-Nov-16 15:29N 44°39' E 037°54'0 0.0
2017-Nov-16 14:59N 44°39' E 037°54'0 0.0
2017-Nov-16 14:29N 44°39' E 037°54'0 0.0
2017-Nov-16 13:59N 44°39' E 037°54'0 0.0
2017-Nov-16 13:29N 44°39' E 037°54'  
2017-Nov-14 05:32N 40°54' E 028°56'111.9
2017-Nov-14 05:29N 40°53' E 028°55'  
Track history (hours):
 
Tides and Currents Weather Stations Pressure Air Temp Water Temp Dewpoint Dewpoint Depression Visibility Wind Speed Wind Dir Waves Ship Positions

Harun Konan

Last reported at 2017-Nov-17 23:22 UTC. Time now 2017-Nov-19 12:41 UTC.
Position N 44°21' E 037°27'.

Length 89 m; draft 6.1 m.

Type: Ship. MMSI: 271000871.

Date/timePositionNaut miles runAvg speedWind from/ knotsBaromVisibWave heightAir tempDewpointWater temp
2017-Nov-17 23:22N 44°21' E 037°27'411.3
2017-Nov-17 22:59N 44°24' E 037°32'511.4
2017-Nov-17 22:31N 44°27' E 037°38'611.4
2017-Nov-17 22:00N 44°32' E 037°43'511.1
2017-Nov-17 21:31N 44°36' E 037°48'5 9.2
2017-Nov-17 21:00N 44°40' E 037°50'4 7.3
2017-Nov-17 20:31N 44°44' E 037°48'0 0.2
2017-Nov-17 20:00N 44°44' E 037°48'0 0.0
2017-Nov-17 19:30N 44°44' E 037°48'0 0.0
2017-Nov-17 19:00N 44°44' E 037°48'0 0.0
2017-Nov-17 18:31N 44°44' E 037°48'0 0.0
2017-Nov-17 18:01N 44°44' E 037°48'0 0.0
2017-Nov-17 17:31N 44°44' E 037°48'0 0.0
2017-Nov-17 17:01N 44°44' E 037°48'0 0.0
2017-Nov-17 16:30N 44°44' E 037°48'0 0.0
2017-Nov-17 16:01N 44°44' E 037°48'0 0.0
2017-Nov-17 15:30N 44°44' E 037°48'0 0.0
2017-Nov-17 13:15N 44°44' E 037°48'0 0.0
2017-Nov-17 13:00N 44°44' E 037°48'0 0.0
2017-Nov-17 12:30N 44°44' E 037°48'0 0.0
2017-Nov-17 12:00N 44°44' E 037°48'0 0.0
2017-Nov-17 11:30N 44°44' E 037°48'0 0.0
2017-Nov-17 10:57N 44°44' E 037°48'0 0.0
2017-Nov-17 10:30N 44°44' E 037°48'0 0.0
2017-Nov-17 10:00N 44°44' E 037°48'0 0.0
2017-Nov-17 09:30N 44°44' E 037°48'0 0.0
2017-Nov-17 09:00N 44°44' E 037°48'0 0.0
2017-Nov-17 08:30N 44°44' E 037°48'0 0.0
2017-Nov-17 08:00N 44°44' E 037°48'0 0.0
2017-Nov-17 07:30N 44°44' E 037°48'0 0.0
2017-Nov-17 07:00N 44°44' E 037°48'0 0.0
2017-Nov-17 06:30N 44°44' E 037°48'6 0.7
2017-Nov-16 21:56N 44°39' E 037°54'0 0.0
2017-Nov-16 21:29N 44°39' E 037°54'0 0.0
2017-Nov-16 20:56N 44°39' E 037°54'0 0.0
2017-Nov-16 20:29N 44°39' E 037°54'0 0.0
2017-Nov-16 19:44N 44°39' E 037°54'0 0.0
2017-Nov-16 19:29N 44°39' E 037°54'0 0.0
2017-Nov-16 18:59N 44°39' E 037°54'0 0.0
2017-Nov-16 18:29N 44°39' E 037°54'0 0.0
2017-Nov-16 17:59N 44°39' E 037°54'0 0.0
2017-Nov-16 17:29N 44°39' E 037°54'0 0.0
2017-Nov-16 16:56N 44°39' E 037°54'0 0.0
2017-Nov-16 16:29N 44°39' E 037°54'0 0.0
2017-Nov-16 15:59N 44°39' E 037°54'0 0.0
2017-Nov-16 15:29N 44°39' E 037°54'0 0.0
2017-Nov-16 14:59N 44°39' E 037°54'0 0.0
2017-Nov-16 14:29N 44°39' E 037°54'0 0.0
2017-Nov-16 13:59N 44°39' E 037°54'0 0.0
2017-Nov-16 13:29N 44°39' E 037°54'  
2017-Nov-14 05:32N 40°54' E 028°56'111.9
2017-Nov-14 05:29N 40°53' E 028°55'  

Dump ship's entire track history